Time;durP1;ratioP1;P1;durP2;ratioP2;P2;SDS_P1;SDS_P2;PMS_P1;PMS_P2;Temp;Humidity;BMP_temperature;BMP_pressure;BME280_temperature;BME280_humidity;BME280_pressure;Samples;Min_cycle;Max_cycle;Signal;HPM_P1;HPM_P2
2021/11/30 00:01:37;;;;;;;2.75;2.65;;;1.20;99.90;;;;;;5007760;22;20229;-72
2021/11/30 00:04:05;;;;;;;3.17;2.97;;;1.10;99.90;;;;;;5029625;28;20226;-72
2021/11/30 00:06:34;;;;;;;3.03;2.92;;;1.10;99.90;;;;;;5039197;28;20324;-72
2021/11/30 00:09:21;;;;;;;2.67;2.58;;;1.00;99.90;;;;;;5037029;28;20219;-72
2021/11/30 00:11:47;;;;;;;2.67;2.58;;;1.00;99.90;;;;;;5021935;28;20223;-72
2021/11/30 00:14:14;;;;;;;2.90;2.80;;;1.00;99.90;;;;;;5019983;28;20235;-72
2021/11/30 00:16:41;;;;;;;3.10;3.00;;;1.00;99.90;;;;;;5020215;28;20219;-74
2021/11/30 00:19:08;;;;;;;2.92;2.83;;;0.90;99.90;;;;;;5021244;28;20230;-73
2021/11/30 00:21:37;;;;;;;3.17;3.08;;;0.90;99.90;;;;;;5021869;28;20231;-72
2021/11/30 00:24:04;;;;;;;3.10;2.90;;;1.00;99.90;;;;;;5023396;28;20219;-72
2021/11/30 00:26:31;;;;;;;3.08;2.88;;;1.00;99.90;;;;;;5021008;28;20218;-74
2021/11/30 00:28:58;;;;;;;2.53;2.33;;;1.10;99.90;;;;;;5021745;28;20222;-73
2021/11/30 00:31:25;;;;;;;3.05;2.95;;;1.00;99.90;;;;;;5019721;28;20231;-73
2021/11/30 00:33:52;;;;;;;2.70;2.60;;;1.00;99.90;;;;;;5034992;28;20216;-72
2021/11/30 00:36:20;;;;;;;3.08;2.97;;;0.90;99.90;;;;;;5021363;28;20231;-72
2021/11/30 00:38:49;;;;;;;2.63;2.53;;;1.00;99.90;;;;;;5022886;28;20223;-72
2021/11/30 00:41:16;;;;;;;2.97;2.88;;;0.90;99.90;;;;;;5022513;28;20227;-72
2021/11/30 00:43:43;;;;;;;2.95;2.85;;;0.90;99.90;;;;;;5018441;28;20228;-72
2021/11/30 00:46:15;;;;;;;3.13;3.03;;;0.90;99.90;;;;;;5021572;28;20219;-72
2021/11/30 00:48:42;;;;;;;2.85;2.75;;;0.90;99.90;;;;;;5020706;28;20599;-75
2021/11/30 00:51:12;;;;;;;2.72;2.63;;;0.90;99.90;;;;;;5021221;28;20234;-73
2021/11/30 00:53:41;;;;;;;3.38;3.28;;;0.90;99.90;;;;;;5019724;28;20219;-74
2021/11/30 00:56:11;;;;;;;2.70;2.60;;;0.90;99.90;;;;;;5021943;28;20624;-72
2021/11/30 00:58:41;;;;;;;3.17;3.08;;;0.90;99.90;;;;;;5022306;28;20231;-72
2021/11/30 01:01:08;;;;;;;2.80;2.70;;;0.90;99.90;;;;;;5018082;28;20238;-74
2021/11/30 01:03:36;;;;;;;2.95;2.85;;;0.90;99.90;;;;;;5023118;28;20239;-73
2021/11/30 01:06:03;;;;;;;3.03;2.92;;;0.80;99.90;;;;;;5021613;28;20227;-73
2021/11/30 01:08:30;;;;;;;2.85;2.75;;;0.80;99.90;;;;;;5019402;28;20229;-73
2021/11/30 01:10:57;;;;;;;3.30;3.20;;;0.80;99.90;;;;;;5018514;28;20627;-73
2021/11/30 01:13:29;;;;;;;2.78;2.67;;;0.80;99.90;;;;;;5019569;28;20223;-73
2021/11/30 01:15:57;;;;;;;3.35;3.15;;;0.90;99.90;;;;;;5019559;28;20223;-73
2021/11/30 01:18:24;;;;;;;2.63;2.53;;;0.90;99.90;;;;;;5020695;28;20219;-73
2021/11/30 01:20:52;;;;;;;2.80;2.60;;;0.80;99.90;;;;;;5021258;28;21540;-73
2021/11/30 01:23:19;;;;;;;2.60;2.50;;;0.80;99.90;;;;;;5021012;28;20590;-74
2021/11/30 01:25:47;;;;;;;3.20;3.00;;;0.80;99.90;;;;;;5024115;28;20227;-73
2021/11/30 01:28:14;;;;;;;2.65;2.55;;;0.70;99.90;;;;;;5032711;28;20232;-73
2021/11/30 01:30:42;;;;;;;3.47;2.90;;;0.70;99.90;;;;;;5023323;28;20232;-73
2021/11/30 01:33:09;;;;;;;3.22;3.13;;;0.60;99.90;;;;;;5021052;28;20219;-73
2021/11/30 01:35:36;;;;;;;2.97;2.88;;;0.60;99.90;;;;;;5017810;28;20231;-72
2021/11/30 01:38:04;;;;;;;2.83;2.72;;;0.60;99.90;;;;;;5024242;28;20223;-73
2021/11/30 01:40:32;;;;;;;3.15;3.00;;;0.60;99.90;;;;;;5020961;28;20215;-73
2021/11/30 01:43:00;;;;;;;3.40;3.20;;;0.60;99.90;;;;;;5024141;28;20215;-73
2021/11/30 01:45:43;;;;;;;2.78;2.67;;;0.60;99.90;;;;;;5006482;28;20222;-73
2021/11/30 01:51:00;;;;;;;2.85;2.75;;;0.60;99.90;;;;;;5021522;28;20226;-74
2021/11/30 01:53:28;;;;;;;2.92;2.83;;;0.60;99.90;;;;;;5030652;28;20215;-73
2021/11/30 01:55:55;;;;;;;3.00;2.90;;;0.60;99.90;;;;;;5023853;28;20733;-73
2021/11/30 01:58:22;;;;;;;3.00;2.90;;;0.60;99.90;;;;;;4998251;28;20215;-73
2021/11/30 02:00:50;;;;;;;3.00;2.90;;;0.60;99.90;;;;;;5026422;28;20604;-76
2021/11/30 02:03:18;;;;;;;3.20;3.10;;;0.50;99.90;;;;;;5022199;28;21598;-73
2021/11/30 02:05:45;;;;;;;3.25;3.15;;;0.50;99.90;;;;;;5022832;28;20229;-74
2021/11/30 02:08:13;;;;;;;3.15;3.05;;;0.60;99.90;;;;;;5026714;28;20231;-74
2021/11/30 02:10:40;;;;;;;3.28;3.17;;;0.60;99.90;;;;;;5019687;28;20241;-73
2021/11/30 02:13:07;;;;;;;3.17;3.08;;;0.60;99.90;;;;;;5019740;28;20306;-73
2021/11/30 02:15:39;;;;;;;2.92;2.83;;;0.60;99.90;;;;;;5015602;28;20521;-73
2021/11/30 02:18:12;;;;;;;3.25;3.05;;;0.60;99.90;;;;;;5022036;28;20603;-73
2021/11/30 02:20:42;;;;;;;2.75;2.65;;;0.60;99.90;;;;;;5034691;28;20235;-74
2021/11/30 02:23:17;;;;;;;2.75;2.65;;;0.60;99.90;;;;;;5028470;28;20231;-73
2021/11/30 02:25:44;;;;;;;3.10;3.00;;;0.60;99.90;;;;;;5016996;28;20219;-73
2021/11/30 02:28:11;;;;;;;2.78;2.67;;;0.50;99.90;;;;;;5017160;28;20215;-72
2021/11/30 02:30:38;;;;;;;2.60;2.50;;;0.50;99.90;;;;;;4972969;28;20846;-73
2021/11/30 02:33:06;;;;;;;3.05;2.85;;;0.40;99.90;;;;;;4994580;28;20238;-73
2021/11/30 02:35:33;;;;;;;3.58;3.38;;;0.30;99.90;;;;;;4986373;28;20220;-73
2021/11/30 02:38:07;;;;;;;3.08;2.97;;;0.20;99.90;;;;;;4965656;28;20280;-73
2021/11/30 02:40:35;;;;;;;3.28;3.10;;;0.20;99.90;;;;;;4888347;28;20748;-73
2021/11/30 02:43:02;;;;;;;4.07;3.80;;;0.10;99.90;;;;;;4920017;28;20606;-73
2021/11/30 02:45:30;;;;;;;3.20;3.00;;;0.00;99.90;;;;;;4933652;28;20227;-73
2021/11/30 02:47:57;;;;;;;3.63;3.42;;;0.00;99.90;;;;;;4922063;28;20236;-73
2021/11/30 02:50:27;;;;;;;2.63;2.53;;;-0.10;99.90;;;;;;5012025;28;22384;-73
2021/11/30 02:52:55;;;;;;;3.20;3.10;;;-0.10;99.90;;;;;;4994356;28;20659;-72
2021/11/30 02:55:24;;;;;;;2.83;2.72;;;-0.10;99.90;;;;;;5017491;28;20226;-75
2021/11/30 02:57:51;;;;;;;3.10;2.90;;;0.00;99.90;;;;;;5022487;28;20231;-73
2021/11/30 03:00:18;;;;;;;3.10;3.00;;;0.00;99.90;;;;;;5018560;28;20571;-73
2021/11/30 03:02:45;;;;;;;3.20;3.10;;;0.00;99.90;;;;;;5020088;28;20227;-72
2021/11/30 03:05:12;;;;;;;3.15;3.05;;;0.10;99.90;;;;;;5020412;28;20228;-73
2021/11/30 03:07:40;;;;;;;2.83;2.72;;;0.10;99.90;;;;;;5018569;28;20239;-73
2021/11/30 03:10:11;;;;;;;3.00;2.80;;;0.10;99.90;;;;;;5023520;28;20267;-72
2021/11/30 03:12:40;;;;;;;3.03;2.92;;;0.20;99.90;;;;;;5021052;28;20227;-73
2021/11/30 03:15:10;;;;;;;3.53;3.33;;;0.10;99.90;;;;;;5032890;28;20240;-75
2021/11/30 03:17:38;;;;;;;2.75;2.65;;;0.20;99.90;;;;;;5015878;28;20227;-72
2021/11/30 03:20:06;;;;;;;3.00;2.90;;;0.20;99.90;;;;;;5023727;28;20223;-71
2021/11/30 03:22:33;;;;;;;2.97;2.88;;;0.10;99.90;;;;;;5023228;28;20234;-72
2021/11/30 03:25:00;;;;;;;3.22;3.13;;;0.10;99.90;;;;;;5021812;28;20216;-72
2021/11/30 03:27:28;;;;;;;3.33;3.22;;;0.10;99.90;;;;;;5023628;28;20228;-72
2021/11/30 03:29:56;;;;;;;3.33;3.15;;;0.10;99.90;;;;;;5020365;28;20250;-70
2021/11/30 03:35:09;;;;;;;2.95;2.85;;;0.10;99.90;;;;;;5020466;28;20246;-72
2021/11/30 03:37:36;;;;;;;3.33;3.22;;;0.10;99.90;;;;;;5022757;28;20739;-75
2021/11/30 03:40:05;;;;;;;3.05;2.95;;;0.10;99.90;;;;;;5022487;28;20227;-72
2021/11/30 03:42:32;;;;;;;3.40;3.30;;;0.10;99.90;;;;;;5023747;28;20235;-72
2021/11/30 03:45:00;;;;;;;3.50;3.30;;;0.00;99.90;;;;;;5021617;28;20235;-72
2021/11/30 03:47:27;;;;;;;3.10;3.00;;;0.10;99.90;;;;;;5020461;28;20231;-73
2021/11/30 03:49:54;;;;;;;2.88;2.78;;;0.00;99.90;;;;;;5022017;28;20220;-70
2021/11/30 03:52:21;;;;;;;3.13;3.03;;;0.00;99.90;;;;;;5021489;28;20227;-73
2021/11/30 03:54:49;;;;;;;3.05;2.95;;;0.00;99.90;;;;;;5020531;28;20227;-72
2021/11/30 03:57:16;;;;;;;3.55;3.35;;;0.00;99.90;;;;;;5026489;28;20228;-72
2021/11/30 03:59:43;;;;;;;3.25;3.15;;;0.00;99.90;;;;;;5020936;28;20246;-72
2021/11/30 04:02:15;;;;;;;3.35;3.15;;;0.00;99.90;;;;;;5020899;28;20242;-71
2021/11/30 04:04:43;;;;;;;3.30;3.20;;;0.00;99.90;;;;;;5026192;28;20253;-74
2021/11/30 04:07:10;;;;;;;3.33;3.22;;;0.00;99.90;;;;;;5030486;28;20242;-72
2021/11/30 04:09:37;;;;;;;3.05;2.95;;;0.00;99.90;;;;;;5030397;28;20232;-73
2021/11/30 04:12:07;;;;;;;3.38;3.28;;;0.00;99.90;;;;;;5019690;28;20239;-72
2021/11/30 04:14:34;;;;;;;3.40;3.30;;;0.00;99.90;;;;;;5019928;28;20277;-74
2021/11/30 04:17:01;;;;;;;3.42;3.22;;;0.00;99.90;;;;;;5023965;28;20231;-74
2021/11/30 04:19:30;;;;;;;3.50;3.38;;;-0.10;99.90;;;;;;5020531;28;20227;-74
2021/11/30 04:21:57;;;;;;;3.63;3.42;;;-0.10;99.90;;;;;;5019725;28;20227;-76
2021/11/30 04:24:24;;;;;;;3.20;3.10;;;-0.10;99.90;;;;;;5020348;28;20215;-72
2021/11/30 04:26:51;;;;;;;3.28;3.17;;;-0.10;99.90;;;;;;5015555;28;20275;-76
2021/11/30 04:29:18;;;;;;;3.40;3.30;;;-0.10;99.90;;;;;;5022339;28;20222;-75
2021/11/30 04:31:46;;;;;;;3.72;3.53;;;-0.10;99.90;;;;;;5021859;28;20239;-76
2021/11/30 04:34:16;;;;;;;3.53;3.33;;;-0.10;99.90;;;;;;5020427;28;20235;-75
2021/11/30 04:36:44;;;;;;;3.58;3.42;;;-0.20;99.90;;;;;;5021375;28;20617;-72
2021/11/30 04:39:12;;;;;;;3.42;3.33;;;-0.10;99.90;;;;;;5021219;28;20219;-74
2021/11/30 04:41:40;;;;;;;3.33;3.22;;;-0.10;99.90;;;;;;5023135;28;20231;-75
2021/11/30 04:44:09;;;;;;;3.58;3.38;;;-0.10;99.90;;;;;;5020015;28;20239;-74
2021/11/30 04:46:44;;;;;;;3.38;3.17;;;-0.10;99.90;;;;;;5021646;28;20230;-75
2021/11/30 04:49:16;;;;;;;3.33;3.22;;;-0.10;99.90;;;;;;5016184;28;20223;-74
2021/11/30 04:51:45;;;;;;;3.30;3.20;;;-0.10;99.90;;;;;;5023003;28;20239;-72
2021/11/30 04:54:12;;;;;;;3.63;3.42;;;-0.10;99.90;;;;;;5015822;28;20231;-72
2021/11/30 04:56:39;;;;;;;3.45;3.35;;;-0.10;99.90;;;;;;5020472;28;20244;-73
2021/11/30 04:59:06;;;;;;;3.30;3.20;;;-0.10;99.90;;;;;;5022279;28;20234;-72
2021/11/30 05:01:34;;;;;;;3.35;3.25;;;-0.10;99.90;;;;;;5019686;28;20231;-72
2021/11/30 05:04:01;;;;;;;3.38;3.28;;;-0.10;99.90;;;;;;5026444;28;20216;-75
2021/11/30 05:06:28;;;;;;;3.15;3.00;;;-0.10;99.90;;;;;;5026413;28;20227;-72
2021/11/30 05:09:02;;;;;;;3.10;3.00;;;-0.10;99.90;;;;;;5021790;28;20220;-74
2021/11/30 05:11:29;;;;;;;3.35;3.25;;;-0.10;99.90;;;;;;5019961;28;20281;-74
2021/11/30 05:13:56;;;;;;;3.53;3.42;;;-0.20;99.90;;;;;;5020107;28;20235;-73
2021/11/30 05:16:23;;;;;;;3.03;2.83;;;-0.30;99.90;;;;;;5018295;28;20227;-74
2021/11/30 05:18:50;;;;;;;3.30;3.20;;;-0.30;99.90;;;;;;5019823;28;20238;-73
2021/11/30 05:21:17;;;;;;;3.33;3.22;;;-0.30;99.90;;;;;;5017927;28;20231;-74
2021/11/30 05:23:45;;;;;;;3.10;3.00;;;-0.40;99.90;;;;;;5022953;28;20230;-72
2021/11/30 05:26:14;;;;;;;3.70;3.60;;;-0.30;99.90;;;;;;5016524;28;20708;-74
2021/11/30 05:28:42;;;;;;;3.25;3.15;;;-0.30;99.90;;;;;;5023061;28;20236;-75
2021/11/30 05:31:12;;;;;;;3.70;3.50;;;-0.30;99.90;;;;;;5018441;28;20235;-75
2021/11/30 05:33:39;;;;;;;3.97;3.78;;;-0.30;99.90;;;;;;5023466;28;20230;-72
2021/11/30 05:36:06;;;;;;;4.47;4.18;;;-0.40;99.90;;;;;;5018117;28;20227;-72
2021/11/30 05:38:34;;;;;;;4.57;4.28;;;-0.40;99.90;;;;;;5021298;28;20290;-72
2021/11/30 05:41:01;;;;;;;4.43;4.13;;;-0.40;99.90;;;;;;5019469;28;20242;-74
2021/11/30 05:43:30;;;;;;;4.20;4.00;;;-0.40;99.90;;;;;;5021439;28;20239;-74
2021/11/30 05:45:57;;;;;;;4.47;4.28;;;-0.40;99.90;;;;;;5013936;28;20228;-73
2021/11/30 05:48:24;;;;;;;3.55;3.35;;;-0.40;99.90;;;;;;5019394;28;20228;-74
2021/11/30 05:50:52;;;;;;;3.88;3.67;;;-0.40;99.90;;;;;;5019146;28;20243;-74
2021/11/30 05:53:19;;;;;;;3.97;3.78;;;-0.40;99.90;;;;;;5017326;28;20224;-72
2021/11/30 05:55:53;;;;;;;3.42;3.22;;;-0.40;99.90;;;;;;5017851;28;20736;-71
2021/11/30 05:58:21;;;;;;;3.90;3.70;;;-0.50;99.90;;;;;;5023578;28;20215;-73
2021/11/30 06:00:49;;;;;;;3.78;3.60;;;-0.50;99.90;;;;;;5023760;28;20234;-73
2021/11/30 06:03:28;;;;;;;3.60;3.40;;;-0.50;99.90;;;;;;5020810;22;20235;-78
2021/11/30 06:05:55;;;;;;;3.40;3.28;;;-0.50;99.90;;;;;;5020741;28;20901;-77
2021/11/30 06:08:22;;;;;;;3.65;3.55;;;-0.50;99.90;;;;;;5035276;28;20234;-79
2021/11/30 06:10:49;;;;;;;3.80;3.60;;;-0.50;99.90;;;;;;5039467;28;20231;-78
2021/11/30 06:13:17;;;;;;;3.08;2.97;;;-0.50;99.90;;;;;;5033145;28;20230;-79
2021/11/30 06:15:44;;;;;;;3.13;3.03;;;-0.50;99.90;;;;;;5024654;28;20605;-78
2021/11/30 06:18:12;;;;;;;2.60;2.50;;;-0.50;99.90;;;;;;5020378;28;20223;-76
2021/11/30 06:20:39;;;;;;;2.83;2.72;;;-0.60;99.90;;;;;;5022221;28;20234;-78
2021/11/30 06:23:06;;;;;;;3.05;2.95;;;-0.60;99.90;;;;;;5022822;28;20616;-79
2021/11/30 06:25:34;;;;;;;2.92;2.83;;;-0.60;99.90;;;;;;5026903;28;20238;-78
2021/11/30 06:28:01;;;;;;;3.03;2.92;;;-0.60;99.90;;;;;;5021444;28;20227;-78
2021/11/30 06:30:28;;;;;;;3.30;3.20;;;-0.60;99.90;;;;;;5020884;28;20227;-79
2021/11/30 06:32:55;;;;;;;3.05;2.95;;;-0.60;99.90;;;;;;5023412;28;20219;-78
2021/11/30 06:35:24;;;;;;;3.92;3.72;;;-0.70;99.90;;;;;;5018709;28;20216;-79
2021/11/30 06:37:52;;;;;;;4.07;3.88;;;-0.70;99.90;;;;;;5022865;28;20950;-79
2021/11/30 06:40:19;;;;;;;4.43;4.22;;;-0.80;99.90;;;;;;5018223;28;20222;-79
2021/11/30 06:42:46;;;;;;;3.92;3.72;;;-0.80;99.90;;;;;;5023590;28;20259;-78
2021/11/30 06:45:13;;;;;;;4.18;3.97;;;-0.80;99.90;;;;;;5025206;28;20231;-79
2021/11/30 06:47:42;;;;;;;4.10;3.90;;;-0.80;99.90;;;;;;5028686;28;20651;-78
2021/11/30 06:50:11;;;;;;;3.90;3.70;;;-0.80;99.90;;;;;;5025145;28;20239;-80
2021/11/30 06:52:39;;;;;;;3.85;3.58;;;-0.80;99.90;;;;;;5026230;28;20238;-78
2021/11/30 06:55:08;;;;;;;3.78;3.58;;;-0.70;99.90;;;;;;5026492;28;20239;-79
2021/11/30 06:57:35;;;;;;;3.92;3.72;;;-0.70;99.90;;;;;;5022879;28;20731;-78
2021/11/30 07:00:05;;;;;;;3.30;3.20;;;-0.70;99.90;;;;;;5025198;28;20220;-78
2021/11/30 07:02:34;;;;;;;3.53;3.33;;;-0.70;99.90;;;;;;5027293;28;20281;-78
2021/11/30 07:05:12;;;;;;;3.83;3.63;;;-0.70;99.90;;;;;;5019586;28;20246;-78
2021/11/30 07:07:48;;;;;;;3.63;3.53;;;-0.70;99.90;;;;;;5023644;28;20239;-77
2021/11/30 07:10:33;;;;;;;2.97;2.88;;;-0.70;99.90;;;;;;5020489;28;20224;-77
2021/11/30 07:13:17;;;;;;;3.08;2.97;;;-0.70;99.90;;;;;;5024152;28;20235;-79
2021/11/30 07:15:45;;;;;;;3.45;3.25;;;-0.60;99.90;;;;;;5027230;28;20239;-77
2021/11/30 07:18:14;;;;;;;3.40;3.30;;;-0.70;99.90;;;;;;5023446;28;20235;-76
2021/11/30 07:20:43;;;;;;;3.85;3.65;;;-0.60;99.90;;;;;;5025224;28;20220;-79
2021/11/30 07:23:11;;;;;;;3.38;3.28;;;-0.70;99.90;;;;;;5023496;28;20293;-78
2021/11/30 07:25:39;;;;;;;3.30;3.10;;;-0.70;99.90;;;;;;5020831;28;20227;-78
2021/11/30 07:28:07;;;;;;;3.28;3.17;;;-0.50;99.90;;;;;;5023650;28;20269;-79
2021/11/30 07:30:34;;;;;;;3.90;3.60;;;-0.40;99.90;;;;;;5021739;28;20235;-79
2021/11/30 07:33:02;;;;;;;3.97;3.67;;;-0.40;99.90;;;;;;5022213;28;20740;-78
2021/11/30 07:35:29;;;;;;;3.90;3.70;;;-0.50;99.90;;;;;;5020361;28;20243;-79
2021/11/30 07:37:56;;;;;;;6.10;3.70;;;-0.50;99.90;;;;;;5017243;28;20215;-80
2021/11/30 07:40:25;;;;;;;5.75;3.60;;;-0.50;99.90;;;;;;5018438;28;20234;-79
2021/11/30 07:42:52;;;;;;;4.45;4.05;;;-0.60;99.90;;;;;;5015467;28;20223;-78
2021/11/30 07:45:20;;;;;;;4.00;3.70;;;-0.60;99.90;;;;;;5021348;28;20338;-79
2021/11/30 07:47:47;;;;;;;4.05;3.85;;;-0.60;99.90;;;;;;5018579;28;20227;-79
2021/11/30 07:50:14;;;;;;;3.45;3.25;;;-0.60;99.90;;;;;;5022537;28;20227;-79
2021/11/30 07:52:43;;;;;;;3.58;3.38;;;-0.60;99.90;;;;;;5019164;28;20239;-78
2021/11/30 07:55:12;;;;;;;4.40;4.20;;;-0.60;99.90;;;;;;5016484;28;20453;-79
2021/11/30 07:57:41;;;;;;;4.22;3.92;;;-0.60;99.90;;;;;;5015393;28;20684;-78
2021/11/30 08:00:10;;;;;;;4.50;4.20;;;-0.60;99.90;;;;;;5016912;28;20235;-79
2021/11/30 08:02:37;;;;;;;4.03;3.83;;;-0.60;99.90;;;;;;5022994;28;20239;-79
2021/11/30 08:05:06;;;;;;;4.95;4.65;;;-0.50;99.90;;;;;;5017832;28;20223;-78
2021/11/30 08:07:33;;;;;;;6.93;6.32;;;0.40;99.90;;;;;;5022686;28;20230;-79
2021/11/30 08:10:00;;;;;;;6.00;5.50;;;1.50;99.90;;;;;;5016668;28;20278;-80
2021/11/30 08:12:28;;;;;;;5.82;5.45;;;2.50;99.90;;;;;;5021526;28;20822;-80
2021/11/30 08:14:56;;;;;;;4.97;4.68;;;3.40;99.90;;;;;;5012221;28;20223;-77
2021/11/30 08:17:23;;;;;;;3.50;3.30;;;4.30;99.90;;;;;;5018860;28;20231;-79
2021/11/30 08:19:50;;;;;;;3.80;3.60;;;4.90;99.90;;;;;;5016500;28;20234;-79
2021/11/30 08:22:17;;;;;;;3.60;3.40;;;5.50;99.90;;;;;;5020869;28;20262;-78
2021/11/30 08:24:45;;;;;;;4.03;3.80;;;5.90;99.90;;;;;;5019530;28;20238;-79
2021/11/30 08:27:13;;;;;;;4.00;3.70;;;6.30;99.90;;;;;;5017076;28;20796;-79
2021/11/30 08:29:44;;;;;;;3.65;3.35;;;6.70;99.90;;;;;;5017308;28;20567;-79
2021/11/30 08:32:13;;;;;;;3.15;2.63;;;7.10;99.90;;;;;;5014121;28;20231;-79
2021/11/30 08:34:42;;;;;;;3.10;2.90;;;7.40;99.90;;;;;;5017294;28;20609;-78
2021/11/30 08:37:11;;;;;;;3.88;3.58;;;7.60;99.90;;;;;;5017599;28;20231;-79
2021/11/30 08:39:39;;;;;;;3.30;3.10;;;7.60;99.90;;;;;;5019817;28;20239;-80
2021/11/30 08:42:10;;;;;;;3.83;3.53;;;7.90;99.90;;;;;;5010438;28;20243;-79
2021/11/30 08:44:38;;;;;;;3.83;3.53;;;8.00;99.90;;;;;;5015393;28;20651;-78
2021/11/30 08:47:06;;;;;;;3.80;3.50;;;8.30;99.90;;;;;;5015624;28;20554;-79
2021/11/30 08:49:35;;;;;;;3.38;3.08;;;8.40;99.90;;;;;;5015508;28;20238;-77
2021/11/30 08:52:04;;;;;;;3.97;3.67;;;8.50;99.90;;;;;;5018459;28;20238;-80
2021/11/30 08:54:31;;;;;;;3.90;3.25;;;8.60;99.90;;;;;;5017773;28;20227;-79
2021/11/30 08:56:59;;;;;;;4.03;3.72;;;8.50;99.90;;;;;;5017234;28;20289;-78
2021/11/30 08:59:28;;;;;;;4.18;3.75;;;8.40;99.90;;;;;;5018777;28;20226;-78
2021/11/30 09:01:55;;;;;;;3.60;3.28;;;8.80;99.90;;;;;;5020235;28;20230;-78
2021/11/30 09:04:22;;;;;;;3.10;2.90;;;9.40;99.90;;;;;;5020110;28;20653;-78
2021/11/30 09:06:51;;;;;;;3.10;2.80;;;10.40;99.90;;;;;;5020211;28;20307;-80
2021/11/30 09:09:21;;;;;;;2.85;2.67;;;12.10;99.90;;;;;;5018473;28;20306;-79
2021/11/30 09:11:48;;;;;;;3.03;2.83;;;13.60;97.90;;;;;;5019476;28;20219;-77
2021/11/30 09:14:21;;;;;;;2.35;2.22;;;14.90;94.10;;;;;;5019335;28;20234;-78
2021/11/30 09:16:48;;;;;;;2.72;2.53;;;16.00;91.00;;;;;;5019741;28;20232;-79
2021/11/30 09:19:16;;;;;;;3.25;2.95;;;16.70;87.30;;;;;;5014282;28;20223;-78
2021/11/30 09:21:43;;;;;;;3.67;2.85;;;17.10;82.70;;;;;;5013151;28;20227;-77
2021/11/30 09:24:11;;;;;;;2.83;2.63;;;17.40;79.10;;;;;;5016130;28;20223;-76
2021/11/30 09:26:39;;;;;;;2.55;2.35;;;17.40;77.30;;;;;;5019287;28;20550;-77
2021/11/30 09:29:07;;;;;;;2.80;2.60;;;17.80;75.90;;;;;;5022911;28;20231;-79
2021/11/30 09:31:34;;;;;;;2.50;2.30;;;18.00;73.30;;;;;;5014149;28;21508;-79
2021/11/30 09:34:03;;;;;;;2.30;2.20;;;18.10;73.20;;;;;;5017574;28;20247;-76
2021/11/30 09:36:31;;;;;;;2.40;2.22;;;18.10;72.40;;;;;;5018061;28;20223;-77
2021/11/30 09:38:58;;;;;;;2.63;2.42;;;17.90;70.00;;;;;;5017183;28;20246;-74
2021/11/30 09:41:27;;;;;;;2.92;2.67;;;16.80;71.20;;;;;;5012089;28;20220;-78
2021/11/30 09:43:55;;;;;;;3.38;2.67;;;15.60;74.20;;;;;;5017563;28;20241;-79
2021/11/30 09:46:22;;;;;;;2.58;2.42;;;14.60;76.50;;;;;;5014159;28;20219;-78
2021/11/30 09:48:50;;;;;;;2.95;2.75;;;13.50;80.80;;;;;;5016824;28;20657;-77
2021/11/30 09:51:17;;;;;;;2.55;2.35;;;12.40;84.40;;;;;;5012577;28;20242;-80
2021/11/30 09:53:45;;;;;;;3.42;2.47;;;11.70;86.50;;;;;;5012674;28;20793;-79
2021/11/30 09:56:13;;;;;;;2.22;2.13;;;11.00;88.10;;;;;;5008632;28;20234;-78
2021/11/30 09:58:42;;;;;;;2.25;2.13;;;10.30;90.10;;;;;;5013020;28;20231;-78
2021/11/30 10:01:12;;;;;;;2.13;2.03;;;9.80;90.50;;;;;;5012998;28;20222;-78
2021/11/30 10:03:40;;;;;;;2.22;2.13;;;9.60;90.30;;;;;;5018352;28;20242;-79
2021/11/30 10:06:08;;;;;;;2.17;2.08;;;9.50;91.10;;;;;;5009965;28;20852;-76
2021/11/30 10:08:36;;;;;;;2.38;2.28;;;9.50;91.80;;;;;;5009826;28;24983;-75
2021/11/30 10:11:05;;;;;;;2.22;2.13;;;9.30;92.30;;;;;;5012256;28;20232;-77
2021/11/30 10:13:34;;;;;;;2.75;2.60;;;9.00;92.40;;;;;;5010737;28;20223;-75
2021/11/30 10:16:05;;;;;;;2.88;2.67;;;8.80;92.60;;;;;;5009599;28;20234;-74
2021/11/30 10:18:34;;;;;;;2.97;2.72;;;8.50;94.50;;;;;;5013002;28;20695;-75
2021/11/30 10:21:19;;;;;;;3.17;2.45;;;8.80;95.10;;;;;;5019758;28;20215;-72
2021/11/30 10:23:48;;;;;;;2.67;2.53;;;8.70;94.70;;;;;;5018655;28;20524;-75
2021/11/30 10:26:18;;;;;;;2.33;2.15;;;8.80;95.60;;;;;;5018316;28;20227;-77
2021/11/30 10:28:45;;;;;;;2.50;2.38;;;8.60;95.30;;;;;;5017766;28;20223;-75
2021/11/30 10:31:13;;;;;;;2.58;2.38;;;8.50;95.80;;;;;;5016097;28;21169;-75
2021/11/30 10:33:48;;;;;;;3.85;2.92;;;8.40;95.70;;;;;;4993931;28;20242;-77
2021/11/30 10:36:15;;;;;;;4.38;2.28;;;8.60;95.70;;;;;;5017813;28;20222;-75
2021/11/30 10:38:43;;;;;;;2.55;2.08;;;8.80;95.50;;;;;;5013333;28;20784;-74
2021/11/30 10:41:13;;;;;;;2.35;2.25;;;9.20;95.20;;;;;;5016253;28;20628;-77
2021/11/30 10:43:51;;;;;;;2.65;2.45;;;9.40;94.20;;;;;;5014576;28;20239;-76
2021/11/30 10:46:28;;;;;;;2.40;2.30;;;9.60;93.90;;;;;;5015203;28;20281;-78
2021/11/30 10:48:57;;;;;;;2.00;1.90;;;9.60;93.90;;;;;;5016466;28;20231;-74
2021/11/30 10:51:26;;;;;;;2.28;1.98;;;9.80;93.90;;;;;;5017960;28;20223;-76
2021/11/30 10:53:57;;;;;;;1.85;1.75;;;9.80;93.70;;;;;;5019971;28;20605;-76
2021/11/30 10:56:25;;;;;;;2.80;2.15;;;9.80;93.60;;;;;;5014737;28;20230;-75
2021/11/30 10:58:55;;;;;;;2.22;2.13;;;9.90;93.30;;;;;;5013494;28;20238;-75
2021/11/30 11:01:27;;;;;;;2.17;2.08;;;9.90;93.60;;;;;;5015113;28;20227;-74
2021/11/30 11:04:06;;;;;;;2.53;1.88;;;9.90;93.40;;;;;;5019492;28;20789;-77
2021/11/30 11:06:37;;;;;;;2.30;2.10;;;9.80;92.90;;;;;;5015497;28;20631;-75
2021/11/30 11:09:06;;;;;;;2.08;1.98;;;9.60;93.40;;;;;;5011561;28;20780;-76
2021/11/30 11:11:35;;;;;;;2.30;2.10;;;9.40;93.40;;;;;;5016937;28;20720;-77
2021/11/30 11:14:03;;;;;;;2.47;2.28;;;9.40;93.40;;;;;;5018184;28;20231;-76
2021/11/30 11:16:34;;;;;;;2.30;2.20;;;9.40;92.80;;;;;;5018572;28;20224;-76
2021/11/30 11:19:02;;;;;;;2.60;2.40;;;9.50;92.20;;;;;;5014123;28;20239;-74
2021/11/30 11:21:31;;;;;;;2.50;2.35;;;9.60;92.50;;;;;;5013192;28;20305;-78
2021/11/30 11:24:04;;;;;;;2.60;2.40;;;9.50;92.70;;;;;;5017110;28;20232;-77
2021/11/30 11:26:35;;;;;;;2.33;2.20;;;9.40;93.60;;;;;;5016988;28;20236;-74
2021/11/30 11:29:05;;;;;;;2.70;2.33;;;9.30;93.30;;;;;;5018482;28;20226;-77
2021/11/30 11:31:34;;;;;;;2.65;2.50;;;9.10;93.60;;;;;;5016837;28;20219;-76
2021/11/30 11:34:03;;;;;;;2.50;2.30;;;9.20;94.50;;;;;;5017042;28;20242;-78
2021/11/30 11:36:30;;;;;;;3.05;2.35;;;9.30;94.60;;;;;;5016862;28;21449;-77
2021/11/30 11:38:58;;;;;;;2.25;2.10;;;9.20;94.10;;;;;;5016940;28;20239;-76
2021/11/30 11:41:25;;;;;;;2.50;2.30;;;9.20;93.70;;;;;;5019946;28;20227;-74
2021/11/30 11:43:53;;;;;;;2.08;1.98;;;9.30;93.80;;;;;;5018383;28;20235;-77
2021/11/30 11:46:22;;;;;;;1.90;1.80;;;9.20;93.20;;;;;;5020315;28;20234;-74
2021/11/30 11:48:59;;;;;;;2.60;2.40;;;9.10;93.90;;;;;;5021796;28;20223;-73
2021/11/30 11:51:34;;;;;;;2.80;2.60;;;8.90;93.90;;;;;;5014170;28;20223;-75
2021/11/30 11:54:02;;;;;;;2.10;2.00;;;9.00;94.50;;;;;;5009704;28;20234;-75
2021/11/30 11:56:31;;;;;;;2.20;2.10;;;9.30;95.50;;;;;;5009902;28;20582;-78
2021/11/30 11:59:11;;;;;;;2.80;2.60;;;9.30;94.10;;;;;;5012239;28;20239;-74
2021/11/30 12:01:40;;;;;;;2.20;2.10;;;9.20;93.80;;;;;;5012223;28;20226;-76
2021/11/30 12:04:10;;;;;;;2.20;2.10;;;9.40;94.10;;;;;;5014001;28;20239;-76
2021/11/30 12:06:49;;;;;;;2.30;2.10;;;9.00;93.80;;;;;;5016390;22;20237;-71
2021/11/30 12:09:27;;;;;;;2.25;2.00;;;9.20;95.10;;;;;;5070617;28;20229;-74
2021/11/30 12:11:57;;;;;;;2.10;2.00;;;9.40;94.20;;;;;;5070140;28;20217;-72
2021/11/30 12:14:31;;;;;;;2.55;2.35;;;9.40;94.80;;;;;;5079307;28;20241;-72
2021/11/30 12:17:16;;;;;;;2.30;2.20;;;9.20;94.60;;;;;;5069996;28;20539;-71
2021/11/30 12:19:48;;;;;;;4.35;2.50;;;9.00;94.20;;;;;;5072475;28;20225;-72
2021/11/30 12:22:31;;;;;;;2.80;2.50;;;9.20;95.40;;;;;;5070880;28;20730;-73
2021/11/30 12:24:58;;;;;;;2.42;2.33;;;9.30;94.50;;;;;;5073432;28;20271;-71
2021/11/30 12:27:43;;;;;;;2.33;2.22;;;9.40;94.60;;;;;;5074972;28;20229;-69
2021/11/30 12:30:36;;;;;;;2.17;1.95;;;9.50;94.70;;;;;;5075787;28;20264;-71
2021/11/30 12:33:05;;;;;;;2.22;2.13;;;9.50;94.80;;;;;;5069482;28;20218;-72
2021/11/30 12:35:52;;;;;;;2.20;2.10;;;9.40;95.40;;;;;;5074826;28;20696;-71
2021/11/30 12:38:25;;;;;;;2.72;2.53;;;9.20;95.50;;;;;;5071401;28;20713;-71
2021/11/30 12:40:52;;;;;;;2.10;2.00;;;9.00;95.90;;;;;;5074784;28;20576;-71
2021/11/30 12:43:28;;;;;;;2.50;2.30;;;8.80;95.50;;;;;;5075310;28;20232;-72
2021/11/30 12:45:57;;;;;;;2.35;2.22;;;8.80;95.50;;;;;;5072679;28;20246;-71
2021/11/30 12:48:36;;;;;;;2.20;2.10;;;8.90;95.70;;;;;;5073411;28;20244;-70
2021/11/30 12:51:33;;;;;;;2.38;2.17;;;8.80;95.40;;;;;;5074231;28;20218;-71
2021/11/30 12:54:02;;;;;;;3.17;2.53;;;8.40;95.70;;;;;;5035884;28;20228;-72
2021/11/30 12:56:51;;;;;;;2.42;2.33;;;8.30;96.90;;;;;;5073534;28;20239;-71
2021/11/30 12:59:53;;;;;;;2.65;2.15;;;8.60;96.30;;;;;;5075946;28;20233;-71
2021/11/30 13:02:24;;;;;;;2.42;2.22;;;8.80;96.00;;;;;;5073098;28;20221;-71
2021/11/30 13:04:55;;;;;;;2.15;1.95;;;8.50;95.80;;;;;;5078315;28;20670;-71
2021/11/30 13:07:25;;;;;;;2.35;2.15;;;8.40;97.20;;;;;;5077921;28;20254;-71
2021/11/30 13:09:55;;;;;;;2.00;1.90;;;8.40;97.30;;;;;;5075049;28;20730;-71